MMCU/CUU METAR and TAF weather

Enter ICAO airport designator
Station Type Date Time Source
MMCU METAR 2021/09/23 23:40 UTC NOAA

MMCU 232340Z 17010KT 10SM SCT030TCU BKN200 29/09 A3005 RMK SLP084 57011 992 8/202 AC W


Station Type Date Time Source
MMCU Decoded METAR 2021/09/23 23:40 UTC NOAA

Chihuahua International Airport, Mexico (MMCU) 28-42N 105-58W
Sep 23, 2021 - 07:40 PM EDT / 2021.09.23 2340 UTC
Wind: from the S (170 degrees) at 12 MPH (10 KT):0
Visibility: 10 mile(s):0
Sky conditions: mostly cloudy
Weather: Towering cumulus clouds observed
Temperature: 84 F (29 C)
Dew Point: 48 F (9 C)
Relative Humidity: 28%
Pressure (altimeter): 30.05 in. Hg (1017 hPa)
Pressure tendency: 0.03 inches (1.1 hPa) lower than three hours ago
ob: MMCU 232340Z 17010KT 10SM SCT030TCU BKN200 29/09 A3005 RMK SLP084 57011 992 8/202 AC W
cycle: 23

Station Type Date Time Source
MMCU TAF 2021/09/23 18:39 UTC NOAA

TAF MMCU 231636Z 2318/2418 06010KT P6SM SCT030
FM232100 24010KT P6SM BKN030 PROB40 2400/2405 5SM RA
FM240600 00000KT 6SM -RA BKN020 OVC080
FM240900 00000KT P6SM BKN020 BKN080

Example: see airport list